Madison, MN

4:44 PM CST on December 07, 2019 (GMT -0600)
Madison-Lac Qui Parle County

Weather History for KDXX - October, 2019

Change the Weather History Date:

Friday, October 18, 2019

  Actual Average (WUND) Record (WUND)
Temperature  
Mean Temperature 60 °F -  
Max Temperature 73 °F - - (-1)
Min Temperature 48 °F - - (-1)
Degree Days  
Heating Degree Days 4    
Growing Degree Days 10 (Base 50)    
Moisture  
Dew Point 45 °F    
Average Humidity 62    
Maximum Humidity 82    
Minimum Humidity 36    
Precipitation  
Precipitation 0.00 in - - ()
Sea Level Pressure  
Sea Level Pressure 29.52 in    
Wind  
Wind Speed 13 mph (South)    
Max Wind Speed 20 mph    
Max Gust Speed 26 mph    
Visibility 10 miles    
Events      
Averages and records for this station are not official NWS values.
T = Trace of Precipitation, MM = Missing Value Source: NWS Daily Summary

Daily Weather History Graph

Daily Weather History Graph

Search for Another Location

Airport or City:

Astronomy

Oct. 18, 2019 Rise Set
Actual Time 7:44 AM CDT 6:34 PM CDT
Civil Twilight 7:14 AM CDT 7:04 PM CDT
Nautical Twilight 6:40 AM CDT 7:38 PM CDT
Astronomical Twilight 6:06 AM CDT 8:12 PM CDT
Moon 9:42 PM CDT (10/18) 12:28 PM CDT (10/18)
Length of Visible Light 11h 50m
Length of Day
10h 50m
Waning Gibbous, 78% of the Moon is Illuminated
Oct 18
Waning Gibbous
Oct 21
Last Quarter
Oct 27
New
Nov 4
First Quarter
Nov 12
Full

Hourly Weather History & Observations

Time (CDT) Temp. Dew Point Humidity Pressure Visibility Wind Dir Wind Speed Gust Speed Precip Events Conditions
12:15 AM 53.6 °F 42.8 °F 67% 29.69 in 10.0 mi SE 13.8 mph 20.7 mph N/A   Clear
12:37 AM 53.6 °F 42.8 °F 67% 29.68 in 10.0 mi SE 13.8 mph - N/A   Clear
12:55 AM 51.8 °F 42.8 °F 71% 29.67 in 10.0 mi SE 15.0 mph - N/A   Clear
12:56 AM 51.8 °F 42.8 °F 71% 29.67 in 10.0 mi SE 16.1 mph - N/A   Clear
1:15 AM 51.8 °F 42.8 °F 71% 29.66 in 10.0 mi SE 13.8 mph 18.4 mph N/A   Clear
1:16 AM 51.8 °F 42.8 °F 71% 29.66 in 10.0 mi SE 13.8 mph 18.4 mph N/A   Clear
1:35 AM 51.8 °F 42.8 °F 71% 29.66 in 10.0 mi SE 12.7 mph - N/A   Clear
1:39 AM 51.8 °F 42.8 °F 71% 29.66 in 10.0 mi SE 12.7 mph - N/A   Clear
1:58 AM 51.8 °F 42.8 °F 71% 29.65 in 10.0 mi SE 12.7 mph - N/A   Clear
2:15 AM 51.8 °F 42.8 °F 71% 29.64 in 10.0 mi SE 11.5 mph - N/A   Clear
2:35 AM 51.8 °F 42.8 °F 71% 29.64 in 10.0 mi SE 13.8 mph 19.6 mph N/A   Clear
2:36 AM 51.8 °F 42.8 °F 71% 29.64 in 10.0 mi SE 12.7 mph 19.6 mph N/A   Clear
2:55 AM 51.8 °F 42.8 °F 71% 29.64 in 10.0 mi SE 12.7 mph - N/A   Clear
3:18 AM 51.8 °F 42.8 °F 71% 29.63 in 10.0 mi SE 11.5 mph - N/A   Clear
3:37 AM 50.0 °F 42.8 °F 76% 29.62 in 10.0 mi SE 10.4 mph - N/A   Clear
3:56 AM 50.0 °F 42.8 °F 76% 29.61 in 10.0 mi SE 12.7 mph - N/A   Clear
4:15 AM 48.2 °F 42.8 °F 82% 29.60 in 10.0 mi SE 11.5 mph - N/A   Clear
4:16 AM 48.2 °F 42.8 °F 82% 29.60 in 10.0 mi SE 11.5 mph - N/A   Clear
4:35 AM 50.0 °F 42.8 °F 76% 29.59 in 10.0 mi SE 12.7 mph - N/A   Clear
4:39 AM 50.0 °F 42.8 °F 76% 29.59 in 10.0 mi SE 11.5 mph 18.4 mph N/A   Clear
4:57 AM 50.0 °F 42.8 °F 76% 29.58 in 10.0 mi SE 16.1 mph - N/A   Clear
5:16 AM 50.0 °F 42.8 °F 76% 29.57 in 10.0 mi SE 15.0 mph 21.9 mph N/A   Clear
5:35 AM 51.8 °F 42.8 °F 71% 29.57 in 10.0 mi SE 13.8 mph 18.4 mph N/A   Clear
5:36 AM 51.8 °F 44.6 °F 76% 29.57 in 10.0 mi SE 12.7 mph 18.4 mph N/A   Clear
5:55 AM 50.0 °F 42.8 °F 76% 29.57 in 10.0 mi SE 12.7 mph 19.6 mph N/A   Clear
5:56 AM 50.0 °F 42.8 °F 76% 29.57 in 10.0 mi SE 12.7 mph 19.6 mph N/A   Clear
6:19 AM 50.0 °F 42.8 °F 76% 29.57 in 10.0 mi SE 15.0 mph 19.6 mph N/A   Clear
6:37 AM 50.0 °F 42.8 °F 76% 29.56 in 10.0 mi SE 13.8 mph 19.6 mph N/A   Clear
7:15 AM 50.0 °F 42.8 °F 76% 29.55 in 10.0 mi SE 13.8 mph 19.6 mph N/A   Clear
7:16 AM 50.0 °F 42.8 °F 76% 29.55 in 10.0 mi SE 13.8 mph 19.6 mph N/A   Clear
7:35 AM 48.2 °F 42.8 °F 82% 29.55 in 10.0 mi SE 12.7 mph - N/A   Clear
7:39 AM 48.2 °F 42.8 °F 82% 29.55 in 10.0 mi SE 11.5 mph - N/A   Clear
7:58 AM 48.2 °F 42.8 °F 82% 29.54 in 10.0 mi SE 13.8 mph - N/A   Clear
8:15 AM 48.2 °F 42.8 °F 82% 29.53 in 10.0 mi SE 12.7 mph 18.4 mph N/A   Clear
8:35 AM 50.0 °F 44.6 °F 82% 29.52 in 10.0 mi SE 13.8 mph 19.6 mph N/A   Clear
8:36 AM 50.0 °F 44.6 °F 82% 29.53 in 10.0 mi SE 13.8 mph 19.6 mph N/A   Clear
8:55 AM 51.8 °F 44.6 °F 76% 29.52 in 10.0 mi SE 13.8 mph 20.7 mph N/A   Clear
8:56 AM 51.8 °F 44.6 °F 76% 29.52 in 10.0 mi SE 13.8 mph 20.7 mph N/A   Clear
9:15 AM 53.6 °F 44.6 °F 72% 29.52 in 10.0 mi SSE 16.1 mph 23.0 mph N/A   Clear
9:16 AM 53.6 °F 44.6 °F 72% 29.52 in 10.0 mi SSE 15.0 mph 23.0 mph N/A   Clear
9:39 AM 55.4 °F 44.6 °F 67% 29.52 in 10.0 mi SSE 11.5 mph 20.7 mph N/A   Clear
9:56 AM 55.4 °F 44.6 °F 67% 29.51 in 10.0 mi SSE 15.0 mph 19.6 mph N/A   Clear
10:16 AM 57.2 °F 44.6 °F 63% 29.51 in 10.0 mi SSE 10.4 mph 16.1 mph N/A   Clear
10:35 AM 59.0 °F 46.4 °F 63% 29.50 in 10.0 mi SSE 11.5 mph - N/A   Clear
10:36 AM 59.0 °F 46.4 °F 63% 29.50 in 10.0 mi SSE 9.2 mph - N/A   Clear
10:55 AM 60.8 °F 46.4 °F 59% 29.50 in 10.0 mi SSE 12.7 mph 18.4 mph N/A   Clear
10:59 AM 60.8 °F 46.4 °F 59% 29.50 in 10.0 mi SSE 10.4 mph 18.4 mph N/A   Clear
11:17 AM 62.6 °F 46.4 °F 55% 29.49 in 10.0 mi SSE 10.4 mph - N/A   Clear
11:36 AM 66.2 °F 46.4 °F 49% 29.47 in 10.0 mi South 13.8 mph 19.6 mph N/A   Clear
11:55 AM 66.2 °F 44.6 °F 46% 29.47 in 10.0 mi South 13.8 mph 24.2 mph N/A   Clear
11:56 AM 66.2 °F 44.6 °F 46% 29.47 in 10.0 mi South 16.1 mph 24.2 mph N/A   Clear
12:15 PM 68.0 °F 44.6 °F 43% 29.46 in 10.0 mi South 15.0 mph 20.7 mph N/A   Clear
12:37 PM 69.8 °F 44.6 °F 40% 29.45 in 10.0 mi South 17.3 mph 23.0 mph N/A   Clear
12:55 PM 69.8 °F 44.6 °F 40% 29.44 in 10.0 mi South 16.1 mph 24.2 mph N/A   Clear
1:15 PM 69.8 °F 44.6 °F 40% 29.43 in 10.0 mi South 15.0 mph 23.0 mph N/A   Clear
1:16 PM 69.8 °F 44.6 °F 40% 29.43 in 10.0 mi South 15.0 mph 23.0 mph N/A   Clear
1:35 PM 69.8 °F 44.6 °F 40% 29.42 in 10.0 mi SSE 15.0 mph 19.6 mph N/A   Clear
1:36 PM 69.8 °F 44.6 °F 40% 29.41 in 10.0 mi SSE 17.3 mph 20.7 mph N/A   Clear
1:59 PM 71.6 °F 44.6 °F 38% 29.41 in 10.0 mi South 13.8 mph 20.7 mph N/A   Clear
2:16 PM 71.6 °F 44.6 °F 38% 29.41 in 10.0 mi South 13.8 mph 23.0 mph N/A   Clear
2:36 PM 71.6 °F 44.6 °F 38% 29.41 in 10.0 mi South 19.6 mph 23.0 mph N/A   Clear
2:55 PM 71.6 °F 44.6 °F 38% 29.41 in 10.0 mi South 15.0 mph 24.2 mph N/A   Clear
2:56 PM 71.6 °F 44.6 °F 38% 29.41 in 10.0 mi South 13.8 mph 24.2 mph N/A   Clear
3:15 PM 73.4 °F 44.6 °F 36% 29.41 in 10.0 mi South 15.0 mph 25.3 mph N/A   Scattered Clouds
3:19 PM 73.4 °F 44.6 °F 36% 29.42 in 10.0 mi South 18.4 mph 25.3 mph N/A   Scattered Clouds
3:37 PM 73.4 °F 44.6 °F 36% 29.42 in 10.0 mi SSW 18.4 mph 26.5 mph N/A   Scattered Clouds
3:56 PM 71.6 °F 46.4 °F 41% 29.43 in 10.0 mi South 11.5 mph 19.6 mph N/A   Mostly Cloudy
4:15 PM 71.6 °F 46.4 °F 41% 29.43 in 10.0 mi SW 12.7 mph 21.9 mph N/A   Scattered Clouds
4:16 PM 71.6 °F 46.4 °F 41% 29.43 in 10.0 mi SW 15.0 mph 21.9 mph N/A   Scattered Clouds
4:35 PM 69.8 °F 46.4 °F 43% 29.43 in 10.0 mi SSW 13.8 mph 20.7 mph N/A   Clear
4:36 PM 69.8 °F 46.4 °F 43% 29.43 in 10.0 mi SSW 12.7 mph - N/A   Clear
4:59 PM 69.8 °F 46.4 °F 43% 29.43 in 10.0 mi SSW 8.1 mph - N/A   Mostly Cloudy
5:16 PM 71.6 °F 46.4 °F 41% 29.44 in 10.0 mi SSW 10.4 mph - N/A   Mostly Cloudy
5:35 PM 69.8 °F 46.4 °F 43% 29.44 in 10.0 mi SW 4.6 mph - N/A   Scattered Clouds
5:55 PM 68.0 °F 46.4 °F 46% 29.45 in 10.0 mi SW 5.8 mph - N/A   Clear
5:56 PM 68.0 °F 46.4 °F 46% 29.45 in 10.0 mi SW 5.8 mph - N/A   Clear
6:15 PM 66.2 °F 46.4 °F 49% 29.45 in 10.0 mi SW 4.6 mph - N/A   Clear
6:19 PM 66.2 °F 46.4 °F 49% 29.45 in 10.0 mi SW 4.6 mph - N/A   Clear
6:38 PM 64.4 °F 46.4 °F 52% 29.46 in 10.0 mi WSW 4.6 mph - N/A   Clear
6:55 PM 64.4 °F 46.4 °F 52% 29.46 in 10.0 mi WSW 6.9 mph - N/A   Clear
7:16 PM 60.8 °F 46.4 °F 59% 29.48 in 10.0 mi WSW 4.6 mph - N/A   Clear
7:35 PM 60.8 °F 46.4 °F 59% 29.49 in 10.0 mi West 6.9 mph - N/A   Clear
7:36 PM 60.8 °F 46.4 °F 59% 29.49 in 10.0 mi West 6.9 mph - N/A   Clear
7:59 PM 59.0 °F 46.4 °F 63% 29.50 in 10.0 mi West 6.9 mph - N/A   Clear
8:36 PM 55.4 °F 46.4 °F 72% 29.51 in 10.0 mi West 6.9 mph - N/A   Clear
8:55 PM 53.6 °F 46.4 °F 77% 29.52 in 10.0 mi West 5.8 mph - N/A   Clear
8:56 PM 53.6 °F 46.4 °F 77% 29.52 in 10.0 mi West 5.8 mph - N/A   Clear
9:15 PM 53.6 °F 46.4 °F 77% 29.53 in 10.0 mi West 5.8 mph - N/A   Clear
9:20 PM 53.6 °F 46.4 °F 77% 29.53 in 10.0 mi West 5.8 mph - N/A   Clear
9:37 PM 55.4 °F 46.4 °F 72% 29.55 in 10.0 mi West 6.9 mph - N/A   Clear
9:55 PM 55.4 °F 46.4 °F 72% 29.55 in 10.0 mi West 9.2 mph - N/A   Clear
10:35 PM 57.2 °F 46.4 °F 67% 29.56 in 10.0 mi WNW 10.4 mph 16.1 mph N/A   Clear
10:36 PM 57.2 °F 46.4 °F 67% 29.56 in 10.0 mi WNW 10.4 mph 16.1 mph N/A   Clear
10:59 PM 57.2 °F 46.4 °F 67% 29.57 in 10.0 mi WNW 9.2 mph - N/A   Clear
11:16 PM 57.2 °F 46.4 °F 67% 29.58 in 10.0 mi West 9.2 mph - N/A   Clear
11:36 PM 57.2 °F 46.4 °F 67% 29.57 in 10.0 mi WNW 11.5 mph - N/A   Scattered Clouds
11:55 PM 57.2 °F 44.6 °F 63% 29.58 in 10.0 mi WNW 11.5 mph - N/A   Scattered Clouds